createdAt,value
2022-12-20T00:03:28.553Z,12.4
2022-12-20T00:13:28.702Z,12.4
2022-12-20T00:18:28.737Z,12.4
2022-12-20T00:23:28.861Z,12.4
2022-12-20T00:28:28.925Z,12.5
2022-12-20T00:33:29.045Z,12.5
2022-12-20T00:38:29.091Z,12.5
2022-12-20T00:43:29.150Z,12.6
2022-12-20T00:48:29.183Z,12.6
2022-12-20T00:53:29.279Z,12.6
2022-12-20T00:58:31.292Z,12.6
2022-12-20T01:03:29.529Z,12.6
2022-12-20T01:08:29.511Z,12.6
2022-12-20T01:13:29.630Z,12.5
2022-12-20T01:18:31.179Z,12.5
2022-12-20T01:23:29.763Z,12.5
2022-12-20T01:28:31.884Z,12.5
2022-12-20T01:33:30.210Z,12.6
2022-12-20T01:38:30.069Z,12.6
2022-12-20T01:43:30.227Z,12.6
2022-12-20T01:48:30.322Z,12.6
2022-12-20T01:53:30.436Z,12.6
2022-12-20T01:58:30.624Z,12.7
2022-12-20T02:03:30.602Z,12.7
2022-12-20T02:08:30.685Z,12.7
2022-12-20T02:13:30.849Z,12.7
2022-12-20T02:18:30.922Z,12.8
2022-12-20T02:23:31.016Z,12.8
2022-12-20T02:28:31.101Z,12.9
2022-12-20T02:33:33.254Z,12.9
2022-12-20T02:38:35.362Z,13.0
2022-12-20T02:43:31.443Z,13.0
2022-12-20T02:48:31.606Z,13.0
2022-12-20T02:53:31.623Z,13.0
2022-12-20T02:58:31.770Z,12.9
2022-12-20T03:03:31.917Z,12.9
2022-12-20T03:08:31.974Z,12.8
2022-12-20T03:13:32.043Z,12.8
2022-12-20T03:18:32.150Z,12.8
2022-12-20T03:28:32.561Z,12.7
2022-12-20T03:33:32.426Z,12.6
2022-12-20T03:38:32.542Z,12.7
2022-12-20T03:43:32.690Z,12.6
2022-12-20T03:48:32.825Z,12.6
2022-12-20T04:08:33.379Z,12.6
2022-12-20T04:13:35.342Z,12.6
2022-12-20T04:18:33.469Z,12.5
2022-12-20T04:23:33.640Z,12.5
2022-12-20T04:33:33.824Z,12.5
2022-12-20T04:38:35.387Z,12.5
2022-12-20T04:43:34.067Z,12.5
2022-12-20T04:48:55.757Z,12.5
2022-12-20T04:53:36.164Z,12.4
2022-12-20T04:58:34.317Z,12.4
2022-12-20T05:03:34.529Z,12.1
2022-12-20T05:08:34.472Z,11.8
2022-12-20T05:13:34.541Z,11.5
2022-12-20T05:18:34.624Z,11.4
2022-12-20T05:28:34.679Z,11.3
2022-12-20T05:38:45.151Z,11.3
2022-12-20T05:43:38.797Z,11.2
2022-12-20T05:48:34.896Z,11.1
2022-12-20T05:53:34.902Z,11.0
2022-12-20T05:58:34.979Z,10.8
2022-12-20T06:03:35.175Z,10.7
2022-12-20T06:08:37.009Z,10.5
2022-12-20T06:28:35.557Z,9.8
2022-12-20T06:33:35.067Z,9.7
2022-12-20T06:38:36.328Z,9.7
2022-12-20T06:43:35.045Z,9.6
2022-12-20T06:48:35.069Z,9.4
2022-12-20T06:53:35.034Z,9.3
2022-12-20T06:58:35.078Z,9.2
2022-12-20T07:03:35.177Z,9.1
2022-12-20T07:08:35.061Z,9.0
2022-12-20T07:13:39.109Z,9.0
2022-12-20T07:18:35.013Z,8.9
2022-12-20T07:23:35.020Z,8.9
2022-12-20T07:33:35.031Z,8.7
2022-12-20T07:38:34.987Z,8.6
2022-12-20T07:43:34.958Z,8.6
2022-12-20T07:53:34.986Z,8.4
2022-12-20T07:58:35.169Z,8.4
2022-12-20T08:08:34.852Z,8.1
2022-12-20T08:13:36.365Z,8.2
2022-12-20T08:18:34.758Z,8.1
2022-12-20T08:23:34.713Z,7.9
2022-12-20T08:33:34.617Z,7.7
2022-12-20T08:38:34.963Z,7.8
2022-12-20T08:43:34.551Z,7.6
2022-12-20T08:48:34.563Z,7.5
2022-12-20T08:53:34.468Z,7.4
2022-12-20T08:58:34.366Z,7.4
2022-12-20T09:03:34.328Z,7.4
2022-12-20T09:08:34.225Z,7.4
2022-12-20T09:13:39.515Z,7.4
2022-12-20T09:18:34.084Z,7.4
2022-12-20T09:23:34.019Z,7.4
2022-12-20T09:28:33.945Z,7.4
2022-12-20T09:33:33.839Z,7.4
2022-12-20T09:38:26.954Z,7.4
2022-12-20T09:38:33.611Z,7.4
2022-12-20T09:43:33.681Z,7.6
2022-12-20T09:48:33.626Z,7.7
2022-12-20T09:53:33.498Z,7.8
2022-12-20T09:58:33.565Z,7.9
2022-12-20T10:03:33.582Z,8.0
2022-12-20T10:08:33.303Z,8.1
2022-12-20T10:13:33.290Z,8.1
2022-12-20T10:18:35.241Z,8.2
2022-12-20T10:23:33.788Z,8.4
2022-12-20T10:28:02.070Z,8.6
2022-12-20T10:28:33.092Z,8.6
2022-12-20T10:33:33.052Z,8.7
2022-12-20T10:38:33.195Z,8.8
2022-12-20T10:43:32.980Z,8.9
2022-12-20T10:48:33.039Z,9.0
2022-12-20T10:53:33.568Z,9.1
2022-12-20T10:58:32.908Z,9.2
2022-12-20T11:03:33.430Z,9.4
2022-12-20T11:08:49.814Z,9.4
2022-12-20T11:13:32.881Z,9.6
2022-12-20T11:18:33.029Z,9.6
2022-12-20T11:19:50.800Z,9.6
2022-12-20T11:21:56.929Z,9.7
2022-12-20T11:22:53.908Z,9.7
2022-12-20T11:28:32.919Z,9.8
2022-12-20T11:33:32.932Z,9.8
2022-12-20T11:37:11.813Z,9.9
2022-12-20T11:38:33.932Z,9.9
2022-12-20T11:41:26.971Z,9.9
2022-12-20T11:43:39.129Z,9.9
2022-12-20T11:48:32.981Z,10.0
2022-12-20T11:53:32.929Z,10.0
2022-12-20T11:58:32.967Z,10.1
2022-12-20T12:03:32.978Z,10.1
2022-12-20T12:04:08.531Z,10.1
2022-12-20T12:08:32.907Z,10.1
2022-12-20T12:13:32.938Z,10.1
2022-12-20T12:16:31.756Z,10.2
2022-12-20T12:18:37.174Z,10.2
2022-12-20T12:19:08.911Z,10.2
2022-12-20T12:20:05.982Z,10.2
2022-12-20T12:23:37.415Z,10.2
2022-12-20T12:28:33.030Z,10.3
2022-12-20T12:33:38.436Z,10.4
2022-12-20T12:35:35.892Z,10.3
2022-12-20T12:38:33.024Z,10.3
2022-12-20T12:43:35.033Z,10.4
2022-12-20T12:48:33.041Z,10.4
2022-12-20T12:58:35.141Z,10.5
2022-12-20T13:03:35.364Z,10.4
2022-12-20T13:08:33.184Z,10.5
2022-12-20T13:13:33.247Z,10.5
2022-12-20T13:18:33.263Z,10.5
2022-12-20T13:23:33.234Z,10.6
2022-12-20T13:28:35.731Z,10.6
2022-12-20T13:33:33.307Z,10.7
2022-12-20T13:38:33.345Z,10.8
2022-12-20T13:43:33.392Z,10.9
2022-12-20T13:48:33.456Z,10.9
2022-12-20T13:58:34.879Z,10.9
2022-12-20T14:03:33.664Z,10.9
2022-12-20T14:08:35.684Z,10.9
2022-12-20T14:09:03.598Z,10.8
2022-12-20T14:13:33.842Z,10.8
2022-12-20T14:18:33.724Z,10.6
2022-12-20T14:23:33.671Z,10.6
2022-12-20T14:28:33.782Z,10.6
2022-12-20T14:33:33.739Z,10.4
2022-12-20T14:38:33.729Z,10.3
2022-12-20T14:43:33.754Z,10.2
2022-12-20T14:48:33.791Z,10.1
2022-12-20T14:53:36.009Z,10.1
2022-12-20T14:58:33.861Z,10.0
2022-12-20T15:03:36.482Z,9.9
2022-12-20T15:08:33.876Z,9.9
2022-12-20T15:13:33.945Z,9.8
2022-12-20T15:18:33.897Z,9.8
2022-12-20T15:23:33.887Z,9.6
2022-12-20T15:33:33.898Z,9.3
2022-12-20T15:38:55.268Z,9.2
2022-12-20T15:43:38.724Z,8.9
2022-12-20T15:48:38.239Z,8.8
2022-12-20T15:53:33.791Z,8.6
2022-12-20T15:56:37.142Z,8.5
2022-12-20T15:58:33.768Z,8.4
2022-12-20T16:03:33.882Z,8.2
2022-12-20T16:08:33.621Z,8.2
2022-12-20T16:13:33.641Z,8.0
2022-12-20T16:18:34.829Z,7.9
2022-12-20T16:23:35.559Z,7.8
2022-12-20T16:28:33.408Z,7.6
2022-12-20T16:33:33.362Z,7.4
2022-12-20T16:38:33.250Z,7.2
2022-12-20T16:43:38.591Z,7.2
2022-12-20T16:48:32.995Z,7.1
2022-12-20T16:53:55.011Z,7.0
2022-12-20T16:59:00.163Z,7.1
2022-12-20T17:03:32.863Z,6.9
2022-12-20T17:13:32.528Z,6.8
2022-12-20T17:18:32.451Z,6.7
2022-12-20T17:26:44.215Z,6.7
2022-12-20T17:28:32.256Z,6.7
2022-12-20T17:33:32.081Z,6.6
2022-12-20T17:38:32.018Z,6.5
2022-12-20T17:43:31.851Z,6.3
2022-12-20T17:48:34.708Z,6.2
2022-12-20T17:53:11.282Z,6.2
2022-12-20T17:53:31.808Z,6.2
2022-12-20T17:58:34.828Z,6.1
2022-12-20T18:08:31.225Z,5.9
2022-12-20T18:13:31.115Z,5.8
2022-12-20T18:18:36.628Z,5.8
2022-12-20T18:23:30.955Z,5.6
2022-12-20T18:28:30.830Z,5.6
2022-12-20T18:33:30.666Z,5.4
2022-12-20T18:38:30.536Z,5.3
2022-12-20T18:43:30.424Z,5.2
2022-12-20T18:44:42.201Z,5.3
2022-12-20T18:48:06.859Z,5.2
2022-12-20T18:48:30.268Z,5.2
2022-12-20T18:53:30.156Z,5.1
2022-12-20T18:58:30.099Z,5.1
2022-12-20T19:03:29.950Z,5.1
2022-12-20T19:08:29.777Z,5.0
2022-12-20T19:13:30.926Z,4.9
2022-12-20T19:18:29.467Z,4.8
2022-12-20T19:23:29.311Z,4.7
2022-12-20T19:28:29.259Z,4.7
2022-12-20T19:33:29.008Z,4.6
2022-12-20T19:38:30.350Z,4.5
2022-12-20T19:43:28.753Z,4.5
2022-12-20T19:48:28.645Z,4.5
2022-12-20T19:53:28.402Z,4.4
2022-12-20T19:58:28.266Z,4.3
2022-12-20T20:03:28.241Z,4.1
2022-12-20T20:08:27.990Z,4.1
2022-12-20T20:13:27.770Z,4.1
2022-12-20T20:18:29.556Z,4.0
2022-12-20T20:23:27.346Z,3.9
2022-12-20T20:28:31.472Z,3.8
2022-12-20T20:33:26.999Z,3.8
2022-12-20T20:38:26.820Z,3.8
2022-12-20T20:43:27.482Z,3.6
2022-12-20T20:48:26.336Z,3.6
2022-12-20T20:53:32.699Z,3.5
2022-12-20T20:58:26.054Z,3.4
2022-12-20T21:03:25.814Z,3.4
2022-12-20T21:08:25.602Z,3.4
2022-12-20T21:13:25.356Z,3.3
2022-12-20T21:18:25.204Z,3.2
2022-12-20T21:21:10.019Z,3.2
2022-12-20T21:23:24.948Z,3.2
2022-12-20T21:28:24.796Z,3.2
2022-12-20T21:33:27.692Z,3.2
2022-12-20T21:38:25.705Z,3.2
2022-12-20T21:43:24.191Z,3.2
2022-12-20T21:48:23.953Z,3.2
2022-12-20T21:53:25.751Z,3.1
2022-12-20T21:58:27.241Z,3.0
2022-12-20T22:03:23.554Z,2.9
2022-12-20T22:08:23.101Z,2.9
2022-12-20T22:13:22.795Z,3.1
2022-12-20T22:18:22.582Z,3.1
2022-12-20T22:23:22.239Z,3.2
2022-12-20T22:28:24.773Z,3.2
2022-12-20T22:33:21.924Z,3.4
2022-12-20T22:38:23.751Z,3.4
2022-12-20T22:43:21.509Z,3.5
2022-12-20T22:48:21.378Z,3.6
2022-12-20T22:53:21.139Z,3.7
2022-12-20T22:58:20.977Z,3.8
2022-12-20T23:03:20.723Z,3.8
2022-12-20T23:08:20.527Z,3.8
2022-12-20T23:13:20.169Z,3.8
2022-12-20T23:23:19.761Z,3.7
2022-12-20T23:28:19.739Z,3.6
2022-12-20T23:33:19.393Z,3.7
2022-12-20T23:38:19.392Z,3.6
2022-12-20T23:43:19.065Z,3.7
2022-12-20T23:48:19.033Z,3.7
2022-12-20T23:58:20.790Z,3.7
